sensor_id;sensor_type;location;lat;lon;timestamp;P1;durP1;ratioP1;P2;durP2;ratioP2
72406;SDS011;60396;47.550;18.828;2022-11-15T01:09:36;17.20;;;10.97;;
72406;SDS011;60396;47.550;18.828;2022-11-15T01:12:22;18.50;;;11.05;;
72406;SDS011;60396;47.550;18.828;2022-11-15T01:15:08;18.65;;;11.68;;
72406;SDS011;60396;47.550;18.828;2022-11-15T01:17:54;18.87;;;11.70;;
72406;SDS011;60396;47.550;18.828;2022-11-15T01:20:41;21.02;;;13.07;;
72406;SDS011;60396;47.550;18.828;2022-11-15T01:23:27;21.80;;;13.07;;
72406;SDS011;60396;47.550;18.828;2022-11-15T01:26:14;20.60;;;13.45;;
72406;SDS011;60396;47.550;18.828;2022-11-15T01:29:01;21.50;;;13.52;;
72406;SDS011;60396;47.550;18.828;2022-11-15T01:31:47;22.00;;;12.77;;
72406;SDS011;60396;47.550;18.828;2022-11-15T01:34:33;21.85;;;13.00;;
72406;SDS011;60396;47.550;18.828;2022-11-15T01:37:19;22.83;;;13.30;;
72406;SDS011;60396;47.550;18.828;2022-11-15T01:40:08;21.20;;;12.57;;
72406;SDS011;60396;47.550;18.828;2022-11-15T01:42:54;19.65;;;13.65;;
72406;SDS011;60396;47.550;18.828;2022-11-15T01:45:40;19.62;;;13.35;;
72406;SDS011;60396;47.550;18.828;2022-11-15T01:48:28;21.83;;;13.00;;
72406;SDS011;60396;47.550;18.828;2022-11-15T01:51:17;20.10;;;12.20;;
72406;SDS011;60396;47.550;18.828;2022-11-15T01:54:06;21.50;;;13.02;;
72406;SDS011;60396;47.550;18.828;2022-11-15T01:59:50;21.80;;;13.50;;
72406;SDS011;60396;47.550;18.828;2022-11-15T02:02:36;22.08;;;13.13;;
72406;SDS011;60396;47.550;18.828;2022-11-15T02:05:22;21.20;;;12.47;;
72406;SDS011;60396;47.550;18.828;2022-11-15T02:08:09;20.90;;;13.45;;
72406;SDS011;60396;47.550;18.828;2022-11-15T02:11:08;20.40;;;12.65;;
72406;SDS011;60396;47.550;18.828;2022-11-15T02:13:55;21.92;;;12.70;;
72406;SDS011;60396;47.550;18.828;2022-11-15T02:19:40;20.93;;;13.07;;
72406;SDS011;60396;47.550;18.828;2022-11-15T02:31:58;19.77;;;12.75;;
72406;SDS011;60396;47.550;18.828;2022-11-15T02:35:00;24.13;;;12.10;;
72406;SDS011;60396;47.550;18.828;2022-11-15T02:37:57;18.83;;;11.15;;
72406;SDS011;60396;47.550;18.828;2022-11-15T02:44:12;22.20;;;13.07;;
72406;SDS011;60396;47.550;18.828;2022-11-15T02:47:01;21.58;;;12.55;;
72406;SDS011;60396;47.550;18.828;2022-11-15T02:50:06;22.53;;;12.40;;
72406;SDS011;60396;47.550;18.828;2022-11-15T02:52:53;22.98;;;13.25;;
72406;SDS011;60396;47.550;18.828;2022-11-15T02:55:46;24.48;;;13.57;;
72406;SDS011;60396;47.550;18.828;2022-11-15T02:58:52;22.48;;;12.95;;
72406;SDS011;60396;47.550;18.828;2022-11-15T03:01:54;25.48;;;13.23;;
72406;SDS011;60396;47.550;18.828;2022-11-15T03:04:54;22.63;;;12.53;;
72406;SDS011;60396;47.550;18.828;2022-11-15T03:17:28;18.17;;;10.35;;
72406;SDS011;60396;47.550;18.828;2022-11-15T03:20:17;17.43;;;9.10;;
72406;SDS011;60396;47.550;18.828;2022-11-15T03:23:05;16.48;;;8.35;;
72406;SDS011;60396;47.550;18.828;2022-11-15T03:25:53;15.65;;;8.07;;
72406;SDS011;60396;47.550;18.828;2022-11-15T03:29:03;14.98;;;8.45;;
72406;SDS011;60396;47.550;18.828;2022-11-15T03:31:51;13.02;;;6.40;;
72406;SDS011;60396;47.550;18.828;2022-11-15T03:34:58;10.10;;;4.70;;
72406;SDS011;60396;47.550;18.828;2022-11-15T03:40:47;9.60;;;3.72;;
72406;SDS011;60396;47.550;18.828;2022-11-15T03:43:42;9.77;;;4.12;;
72406;SDS011;60396;47.550;18.828;2022-11-15T03:46:32;8.57;;;3.45;;
72406;SDS011;60396;47.550;18.828;2022-11-15T03:49:22;11.30;;;4.70;;
72406;SDS011;60396;47.550;18.828;2022-11-15T03:52:11;12.48;;;5.60;;
72406;SDS011;60396;47.550;18.828;2022-11-15T03:54:58;22.17;;;10.93;;
72406;SDS011;60396;47.550;18.828;2022-11-15T03:57:51;20.92;;;10.13;;
72406;SDS011;60396;47.550;18.828;2022-11-15T04:00:39;19.45;;;9.82;;
72406;SDS011;60396;47.550;18.828;2022-11-15T04:03:25;18.07;;;9.33;;
72406;SDS011;60396;47.550;18.828;2022-11-15T04:06:11;20.23;;;11.20;;
72406;SDS011;60396;47.550;18.828;2022-11-15T04:08:57;20.58;;;10.02;;
72406;SDS011;60396;47.550;18.828;2022-11-15T04:11:43;19.52;;;11.07;;
72406;SDS011;60396;47.550;18.828;2022-11-15T04:14:29;20.98;;;12.77;;
72406;SDS011;60396;47.550;18.828;2022-11-15T04:17:15;21.30;;;12.77;;
72406;SDS011;60396;47.550;18.828;2022-11-15T04:20:15;21.40;;;12.15;;
72406;SDS011;60396;47.550;18.828;2022-11-15T04:23:23;21.87;;;12.27;;
72406;SDS011;60396;47.550;18.828;2022-11-15T04:26:28;21.92;;;12.88;;
72406;SDS011;60396;47.550;18.828;2022-11-15T04:29:14;22.10;;;13.25;;
72406;SDS011;60396;47.550;18.828;2022-11-15T04:32:19;21.93;;;12.37;;
72406;SDS011;60396;47.550;18.828;2022-11-15T04:35:05;20.90;;;12.50;;
72406;SDS011;60396;47.550;18.828;2022-11-15T04:37:51;24.05;;;13.85;;
72406;SDS011;60396;47.550;18.828;2022-11-15T04:40:38;24.48;;;13.52;;
72406;SDS011;60396;47.550;18.828;2022-11-15T04:43:24;25.73;;;15.75;;
72406;SDS011;60396;47.550;18.828;2022-11-15T04:46:10;25.03;;;15.30;;
72406;SDS011;60396;47.550;18.828;2022-11-15T04:48:55;27.60;;;15.13;;
72406;SDS011;60396;47.550;18.828;2022-11-15T04:51:44;25.27;;;14.25;;
72406;SDS011;60396;47.550;18.828;2022-11-15T04:54:30;21.12;;;13.18;;
72406;SDS011;60396;47.550;18.828;2022-11-15T04:57:16;23.20;;;13.52;;
72406;SDS011;60396;47.550;18.828;2022-11-15T05:00:05;24.27;;;14.00;;
72406;SDS011;60396;47.550;18.828;2022-11-15T05:02:52;23.33;;;14.05;;
72406;SDS011;60396;47.550;18.828;2022-11-15T05:05:57;24.80;;;14.52;;
72406;SDS011;60396;47.550;18.828;2022-11-15T05:08:43;22.52;;;13.80;;
72406;SDS011;60396;47.550;18.828;2022-11-15T05:11:30;24.20;;;14.13;;
72406;SDS011;60396;47.550;18.828;2022-11-15T05:14:16;22.30;;;12.90;;
72406;SDS011;60396;47.550;18.828;2022-11-15T05:17:01;21.52;;;13.32;;
72406;SDS011;60396;47.550;18.828;2022-11-15T05:19:57;22.60;;;12.88;;
72406;SDS011;60396;47.550;18.828;2022-11-15T05:22:43;22.30;;;12.98;;
72406;SDS011;60396;47.550;18.828;2022-11-15T05:25:29;22.00;;;12.00;;
72406;SDS011;60396;47.550;18.828;2022-11-15T05:28:15;21.57;;;12.47;;
72406;SDS011;60396;47.550;18.828;2022-11-15T05:31:11;21.30;;;12.63;;
72406;SDS011;60396;47.550;18.828;2022-11-15T05:33:59;22.50;;;12.25;;
72406;SDS011;60396;47.550;18.828;2022-11-15T05:36:50;20.90;;;11.40;;
72406;SDS011;60396;47.550;18.828;2022-11-15T05:39:36;21.65;;;11.82;;
72406;SDS011;60396;47.550;18.828;2022-11-15T05:42:22;17.33;;;10.23;;
72406;SDS011;60396;47.550;18.828;2022-11-15T05:45:08;18.95;;;11.30;;
72406;SDS011;60396;47.550;18.828;2022-11-15T05:47:55;21.12;;;11.68;;
72406;SDS011;60396;47.550;18.828;2022-11-15T05:50:43;18.60;;;10.85;;
72406;SDS011;60396;47.550;18.828;2022-11-15T05:53:31;22.23;;;12.13;;
72406;SDS011;60396;47.550;18.828;2022-11-15T05:56:18;22.43;;;12.23;;
72406;SDS011;60396;47.550;18.828;2022-11-15T05:59:04;23.27;;;12.45;;
72406;SDS011;60396;47.550;18.828;2022-11-15T06:01:50;30.75;;;14.15;;
72406;SDS011;60396;47.550;18.828;2022-11-15T06:04:37;26.25;;;14.52;;
72406;SDS011;60396;47.550;18.828;2022-11-15T06:07:23;30.20;;;16.33;;
72406;SDS011;60396;47.550;18.828;2022-11-15T06:10:09;33.03;;;17.17;;
72406;SDS011;60396;47.550;18.828;2022-11-15T06:12:56;33.25;;;17.02;;
72406;SDS011;60396;47.550;18.828;2022-11-15T06:15:52;32.38;;;16.17;;
72406;SDS011;60396;47.550;18.828;2022-11-15T06:18:41;26.05;;;13.45;;
72406;SDS011;60396;47.550;18.828;2022-11-15T06:21:27;28.30;;;13.75;;
72406;SDS011;60396;47.550;18.828;2022-11-15T06:24:16;29.43;;;16.63;;
72406;SDS011;60396;47.550;18.828;2022-11-15T06:27:02;28.10;;;15.75;;
72406;SDS011;60396;47.550;18.828;2022-11-15T06:29:47;30.58;;;17.65;;
72406;SDS011;60396;47.550;18.828;2022-11-15T06:32:34;30.15;;;17.17;;
72406;SDS011;60396;47.550;18.828;2022-11-15T06:35:20;30.10;;;16.65;;
72406;SDS011;60396;47.550;18.828;2022-11-15T06:38:06;31.73;;;19.03;;
72406;SDS011;60396;47.550;18.828;2022-11-15T06:40:54;33.92;;;18.02;;
72406;SDS011;60396;47.550;18.828;2022-11-15T06:43:40;26.17;;;14.95;;
72406;SDS011;60396;47.550;18.828;2022-11-15T06:46:26;26.48;;;15.10;;
72406;SDS011;60396;47.550;18.828;2022-11-15T06:49:12;26.98;;;14.87;;
72406;SDS011;60396;47.550;18.828;2022-11-15T06:51:58;32.30;;;15.60;;
72406;SDS011;60396;47.550;18.828;2022-11-15T06:54:43;26.23;;;16.08;;
72406;SDS011;60396;47.550;18.828;2022-11-15T06:57:30;29.73;;;15.52;;
72406;SDS011;60396;47.550;18.828;2022-11-15T07:00:17;29.30;;;16.10;;
72406;SDS011;60396;47.550;18.828;2022-11-15T07:03:04;27.87;;;16.42;;
72406;SDS011;60396;47.550;18.828;2022-11-15T07:05:51;30.80;;;16.97;;
72406;SDS011;60396;47.550;18.828;2022-11-15T07:08:39;27.90;;;16.65;;
72406;SDS011;60396;47.550;18.828;2022-11-15T07:11:26;27.92;;;15.93;;
72406;SDS011;60396;47.550;18.828;2022-11-15T07:14:12;30.88;;;16.48;;
72406;SDS011;60396;47.550;18.828;2022-11-15T07:16:58;29.73;;;16.62;;
72406;SDS011;60396;47.550;18.828;2022-11-15T07:19:45;28.30;;;16.17;;
72406;SDS011;60396;47.550;18.828;2022-11-15T07:22:32;28.67;;;16.05;;
72406;SDS011;60396;47.550;18.828;2022-11-15T07:25:18;30.00;;;17.08;;
72406;SDS011;60396;47.550;18.828;2022-11-15T07:28:04;28.23;;;16.73;;
72406;SDS011;60396;47.550;18.828;2022-11-15T07:30:51;27.30;;;16.17;;
72406;SDS011;60396;47.550;18.828;2022-11-15T07:33:37;30.30;;;16.70;;
72406;SDS011;60396;47.550;18.828;2022-11-15T07:36:23;28.33;;;16.08;;
72406;SDS011;60396;47.550;18.828;2022-11-15T07:39:09;30.52;;;17.52;;
72406;SDS011;60396;47.550;18.828;2022-11-15T07:41:55;32.95;;;18.10;;
72406;SDS011;60396;47.550;18.828;2022-11-15T07:45:00;30.58;;;17.83;;
72406;SDS011;60396;47.550;18.828;2022-11-15T07:47:47;30.50;;;16.73;;
72406;SDS011;60396;47.550;18.828;2022-11-15T07:50:34;30.95;;;17.42;;
72406;SDS011;60396;47.550;18.828;2022-11-15T07:53:20;33.83;;;17.65;;
72406;SDS011;60396;47.550;18.828;2022-11-15T07:56:09;34.70;;;17.45;;
72406;SDS011;60396;47.550;18.828;2022-11-15T07:58:56;32.33;;;17.15;;
72406;SDS011;60396;47.550;18.828;2022-11-15T08:01:43;41.20;;;21.77;;
72406;SDS011;60396;47.550;18.828;2022-11-15T08:04:29;37.75;;;22.13;;
72406;SDS011;60396;47.550;18.828;2022-11-15T08:07:15;32.70;;;19.02;;
72406;SDS011;60396;47.550;18.828;2022-11-15T08:10:02;30.85;;;17.85;;
72406;SDS011;60396;47.550;18.828;2022-11-15T08:12:56;32.03;;;18.00;;
72406;SDS011;60396;47.550;18.828;2022-11-15T08:15:49;30.83;;;17.40;;
72406;SDS011;60396;47.550;18.828;2022-11-15T08:18:42;34.95;;;17.55;;
72406;SDS011;60396;47.550;18.828;2022-11-15T08:21:28;30.85;;;16.55;;
72406;SDS011;60396;47.550;18.828;2022-11-15T08:24:14;30.73;;;16.23;;
72406;SDS011;60396;47.550;18.828;2022-11-15T08:27:00;34.45;;;18.12;;
72406;SDS011;60396;47.550;18.828;2022-11-15T08:29:50;29.90;;;16.83;;
72406;SDS011;60396;47.550;18.828;2022-11-15T08:32:43;29.48;;;16.87;;
72406;SDS011;60396;47.550;18.828;2022-11-15T08:35:29;28.52;;;16.27;;
72406;SDS011;60396;47.550;18.828;2022-11-15T08:38:16;28.98;;;16.10;;
72406;SDS011;60396;47.550;18.828;2022-11-15T08:41:03;29.33;;;16.27;;
72406;SDS011;60396;47.550;18.828;2022-11-15T08:43:50;26.40;;;15.07;;
72406;SDS011;60396;47.550;18.828;2022-11-15T08:46:36;30.17;;;16.17;;
72406;SDS011;60396;47.550;18.828;2022-11-15T08:49:22;30.92;;;17.37;;
72406;SDS011;60396;47.550;18.828;2022-11-15T08:52:08;26.80;;;15.98;;
72406;SDS011;60396;47.550;18.828;2022-11-15T08:54:54;31.83;;;19.77;;
72406;SDS011;60396;47.550;18.828;2022-11-15T08:57:40;27.63;;;16.47;;
72406;SDS011;60396;47.550;18.828;2022-11-15T09:00:27;28.67;;;16.15;;
72406;SDS011;60396;47.550;18.828;2022-11-15T09:03:12;31.52;;;20.15;;
72406;SDS011;60396;47.550;18.828;2022-11-15T09:05:59;41.45;;;24.65;;
72406;SDS011;60396;47.550;18.828;2022-11-15T09:08:45;36.70;;;23.08;;
72406;SDS011;60396;47.550;18.828;2022-11-15T09:11:33;40.60;;;24.40;;
72406;SDS011;60396;47.550;18.828;2022-11-15T09:14:19;46.85;;;29.40;;
72406;SDS011;60396;47.550;18.828;2022-11-15T09:17:08;38.60;;;22.30;;
72406;SDS011;60396;47.550;18.828;2022-11-15T09:19:55;33.47;;;18.92;;
72406;SDS011;60396;47.550;18.828;2022-11-15T09:22:41;30.45;;;17.80;;
72406;SDS011;60396;47.550;18.828;2022-11-15T09:25:27;28.53;;;17.27;;
72406;SDS011;60396;47.550;18.828;2022-11-15T09:28:14;29.00;;;16.75;;
72406;SDS011;60396;47.550;18.828;2022-11-15T09:31:00;29.25;;;17.15;;
72406;SDS011;60396;47.550;18.828;2022-11-15T09:33:47;30.58;;;16.83;;
72406;SDS011;60396;47.550;18.828;2022-11-15T09:36:33;26.70;;;16.33;;
72406;SDS011;60396;47.550;18.828;2022-11-15T09:39:19;27.27;;;16.20;;
72406;SDS011;60396;47.550;18.828;2022-11-15T09:51:08;30.73;;;17.00;;
72406;SDS011;60396;47.550;18.828;2022-11-15T09:53:54;30.70;;;17.37;;
72406;SDS011;60396;47.550;18.828;2022-11-15T09:56:45;30.33;;;17.75;;
72406;SDS011;60396;47.550;18.828;2022-11-15T10:04:45;40.05;;;23.38;;
72406;SDS011;60396;47.550;18.828;2022-11-15T10:12:18;32.25;;;18.95;;
72406;SDS011;60396;47.550;18.828;2022-11-15T10:14:46;30.90;;;18.33;;
72406;SDS011;60396;47.550;18.828;2022-11-15T10:17:27;33.22;;;18.67;;
72406;SDS011;60396;47.550;18.828;2022-11-15T10:20:12;37.20;;;18.03;;
72406;SDS011;60396;47.550;18.828;2022-11-15T10:22:45;34.47;;;19.05;;
72406;SDS011;60396;47.550;18.828;2022-11-15T10:25:19;30.12;;;17.65;;
72406;SDS011;60396;47.550;18.828;2022-11-15T10:30:48;33.78;;;17.80;;
72406;SDS011;60396;47.550;18.828;2022-11-15T10:33:34;33.90;;;18.50;;
72406;SDS011;60396;47.550;18.828;2022-11-15T10:44:08;32.22;;;18.23;;
72406;SDS011;60396;47.550;18.828;2022-11-15T10:47:20;29.50;;;17.53;;
72406;SDS011;60396;47.550;18.828;2022-11-15T10:49:57;32.15;;;17.77;;
72406;SDS011;60396;47.550;18.828;2022-11-15T10:52:27;31.58;;;18.48;;
72406;SDS011;60396;47.550;18.828;2022-11-15T10:54:57;33.78;;;19.00;;
72406;SDS011;60396;47.550;18.828;2022-11-15T10:57:38;33.83;;;19.35;;
72406;SDS011;60396;47.550;18.828;2022-11-15T11:03:04;30.37;;;18.65;;
72406;SDS011;60396;47.550;18.828;2022-11-15T11:05:37;32.63;;;19.05;;
72406;SDS011;60396;47.550;18.828;2022-11-15T11:10:51;36.78;;;20.08;;
72406;SDS011;60396;47.550;18.828;2022-11-15T11:21:14;32.53;;;18.92;;
72406;SDS011;60396;47.550;18.828;2022-11-15T11:24:05;35.05;;;19.98;;
72406;SDS011;60396;47.550;18.828;2022-11-15T11:26:40;35.93;;;19.20;;
72406;SDS011;60396;47.550;18.828;2022-11-15T11:31:58;36.47;;;20.12;;
72406;SDS011;60396;47.550;18.828;2022-11-15T11:37:39;37.65;;;20.73;;
72406;SDS011;60396;47.550;18.828;2022-11-15T11:48:51;38.58;;;21.17;;
72406;SDS011;60396;47.550;18.828;2022-11-15T11:51:45;40.53;;;21.65;;
72406;SDS011;60396;47.550;18.828;2022-11-15T11:56:53;39.63;;;21.40;;
72406;SDS011;60396;47.550;18.828;2022-11-15T12:02:11;40.78;;;21.73;;
72406;SDS011;60396;47.550;18.828;2022-11-15T12:04:44;40.65;;;20.83;;
72406;SDS011;60396;47.550;18.828;2022-11-15T12:12:59;39.22;;;21.55;;
72406;SDS011;60396;47.550;18.828;2022-11-15T12:15:32;43.63;;;22.40;;
72406;SDS011;60396;47.550;18.828;2022-11-15T12:18:04;44.13;;;24.45;;
72406;SDS011;60396;47.550;18.828;2022-11-15T12:20:36;52.53;;;26.70;;
72406;SDS011;60396;47.550;18.828;2022-11-15T12:23:20;46.28;;;26.73;;
72406;SDS011;60396;47.550;18.828;2022-11-15T12:28:28;47.38;;;27.08;;
72406;SDS011;60396;47.550;18.828;2022-11-15T12:34:02;55.20;;;28.07;;
72406;SDS011;60396;47.550;18.828;2022-11-15T12:36:40;56.33;;;28.52;;
72406;SDS011;60396;47.550;18.828;2022-11-15T12:39:11;52.00;;;28.05;;
72406;SDS011;60396;47.550;18.828;2022-11-15T12:41:43;56.60;;;30.33;;
72406;SDS011;60396;47.550;18.828;2022-11-15T12:46:59;52.40;;;28.00;;
72406;SDS011;60396;47.550;18.828;2022-11-15T13:02:42;51.60;;;27.87;;
72406;SDS011;60396;47.550;18.828;2022-11-15T13:17:43;53.55;;;26.20;;
72406;SDS011;60396;47.550;18.828;2022-11-15T13:20:28;53.42;;;28.42;;
72406;SDS011;60396;47.550;18.828;2022-11-15T13:28:18;53.20;;;28.48;;
72406;SDS011;60396;47.550;18.828;2022-11-15T13:30:51;49.58;;;27.48;;
72406;SDS011;60396;47.550;18.828;2022-11-15T13:33:33;53.38;;;28.30;;
72406;SDS011;60396;47.550;18.828;2022-11-15T13:36:06;49.10;;;27.58;;
72406;SDS011;60396;47.550;18.828;2022-11-15T13:38:40;53.20;;;29.30;;
72406;SDS011;60396;47.550;18.828;2022-11-15T13:41:14;49.28;;;26.27;;
72406;SDS011;60396;47.550;18.828;2022-11-15T13:43:49;47.25;;;26.83;;
72406;SDS011;60396;47.550;18.828;2022-11-15T13:46:19;45.30;;;24.95;;
72406;SDS011;60396;47.550;18.828;2022-11-15T13:48:52;47.95;;;24.65;;
72406;SDS011;60396;47.550;18.828;2022-11-15T13:51:44;45.83;;;24.23;;
72406;SDS011;60396;47.550;18.828;2022-11-15T13:54:29;41.90;;;22.50;;
72406;SDS011;60396;47.550;18.828;2022-11-15T13:57:01;46.42;;;23.48;;
72406;SDS011;60396;47.550;18.828;2022-11-15T13:59:34;44.90;;;23.98;;
72406;SDS011;60396;47.550;18.828;2022-11-15T14:02:11;46.85;;;25.35;;
72406;SDS011;60396;47.550;18.828;2022-11-15T14:04:53;43.47;;;23.63;;
72406;SDS011;60396;47.550;18.828;2022-11-15T14:07:25;45.65;;;24.42;;
72406;SDS011;60396;47.550;18.828;2022-11-15T14:09:55;46.53;;;24.92;;
72406;SDS011;60396;47.550;18.828;2022-11-15T14:15:48;50.65;;;29.05;;
72406;SDS011;60396;47.550;18.828;2022-11-15T14:17:56;55.37;;;29.87;;
72406;SDS011;60396;47.550;18.828;2022-11-15T14:20:30;51.85;;;28.62;;
72406;SDS011;60396;47.550;18.828;2022-11-15T14:23:00;48.87;;;25.75;;
72406;SDS011;60396;47.550;18.828;2022-11-15T14:25:33;48.50;;;26.67;;
72406;SDS011;60396;47.550;18.828;2022-11-15T14:28:16;49.30;;;26.00;;
72406;SDS011;60396;47.550;18.828;2022-11-15T14:30:46;52.23;;;27.70;;
72406;SDS011;60396;47.550;18.828;2022-11-15T14:33:25;47.30;;;24.23;;
72406;SDS011;60396;47.550;18.828;2022-11-15T14:35:52;49.78;;;26.85;;
72406;SDS011;60396;47.550;18.828;2022-11-15T14:38:20;49.38;;;25.77;;
72406;SDS011;60396;47.550;18.828;2022-11-15T14:40:47;43.25;;;23.70;;
72406;SDS011;60396;47.550;18.828;2022-11-15T14:43:16;49.53;;;24.77;;
72406;SDS011;60396;47.550;18.828;2022-11-15T14:45:43;46.72;;;24.58;;
72406;SDS011;60396;47.550;18.828;2022-11-15T14:48:11;45.67;;;23.67;;
72406;SDS011;60396;47.550;18.828;2022-11-15T14:50:40;44.95;;;23.98;;
72406;SDS011;60396;47.550;18.828;2022-11-15T14:53:11;53.08;;;28.38;;
72406;SDS011;60396;47.550;18.828;2022-11-15T14:55:40;44.63;;;25.97;;
72406;SDS011;60396;47.550;18.828;2022-11-15T14:58:08;47.17;;;26.27;;
72406;SDS011;60396;47.550;18.828;2022-11-15T15:00:37;49.42;;;25.50;;
72406;SDS011;60396;47.550;18.828;2022-11-15T15:03:06;49.40;;;24.40;;
72406;SDS011;60396;47.550;18.828;2022-11-15T15:05:35;50.35;;;26.00;;
72406;SDS011;60396;47.550;18.828;2022-11-15T15:08:08;51.57;;;26.50;;
72406;SDS011;60396;47.550;18.828;2022-11-15T15:10:38;57.97;;;29.65;;
72406;SDS011;60396;47.550;18.828;2022-11-15T15:15:45;60.85;;;28.83;;
72406;SDS011;60396;47.550;18.828;2022-11-15T15:18:13;51.33;;;26.23;;
72406;SDS011;60396;47.550;18.828;2022-11-15T15:20:42;52.97;;;26.27;;
72406;SDS011;60396;47.550;18.828;2022-11-15T15:23:16;50.72;;;26.10;;
72406;SDS011;60396;47.550;18.828;2022-11-15T15:25:46;47.45;;;24.52;;
72406;SDS011;60396;47.550;18.828;2022-11-15T15:28:15;50.97;;;25.48;;
72406;SDS011;60396;47.550;18.828;2022-11-15T15:30:43;50.10;;;25.08;;
72406;SDS011;60396;47.550;18.828;2022-11-15T15:33:11;49.90;;;25.00;;
72406;SDS011;60396;47.550;18.828;2022-11-15T15:35:38;53.17;;;27.98;;
72406;SDS011;60396;47.550;18.828;2022-11-15T15:38:06;58.55;;;31.42;;
72406;SDS011;60396;47.550;18.828;2022-11-15T15:40:33;86.45;;;44.63;;
72406;SDS011;60396;47.550;18.828;2022-11-15T15:43:01;99.53;;;46.35;;
72406;SDS011;60396;47.550;18.828;2022-11-15T15:45:28;80.27;;;36.50;;
72406;SDS011;60396;47.550;18.828;2022-11-15T15:47:57;74.12;;;34.40;;
72406;SDS011;60396;47.550;18.828;2022-11-15T15:52:54;55.40;;;27.92;;
72406;SDS011;60396;47.550;18.828;2022-11-15T15:55:23;60.03;;;29.17;;
72406;SDS011;60396;47.550;18.828;2022-11-15T15:57:51;66.87;;;31.97;;
72406;SDS011;60396;47.550;18.828;2022-11-15T16:00:21;61.17;;;28.62;;
72406;SDS011;60396;47.550;18.828;2022-11-15T16:02:51;59.00;;;29.52;;
72406;SDS011;60396;47.550;18.828;2022-11-15T16:05:19;58.75;;;28.50;;
72406;SDS011;60396;47.550;18.828;2022-11-15T16:07:46;56.25;;;28.27;;
72406;SDS011;60396;47.550;18.828;2022-11-15T16:15:34;54.58;;;27.55;;
72406;SDS011;60396;47.550;18.828;2022-11-15T16:18:02;53.45;;;26.80;;
72406;SDS011;60396;47.550;18.828;2022-11-15T16:20:35;55.40;;;27.45;;
72406;SDS011;60396;47.550;18.828;2022-11-15T16:23:05;58.90;;;26.70;;
72406;SDS011;60396;47.550;18.828;2022-11-15T16:25:57;55.80;;;27.52;;
72406;SDS011;60396;47.550;18.828;2022-11-15T16:28:25;55.12;;;26.95;;
72406;SDS011;60396;47.550;18.828;2022-11-15T16:33:29;54.22;;;26.85;;
72406;SDS011;60396;47.550;18.828;2022-11-15T16:35:57;58.53;;;27.27;;
72406;SDS011;60396;47.550;18.828;2022-11-15T16:38:25;56.05;;;26.77;;
72406;SDS011;60396;47.550;18.828;2022-11-15T16:40:53;55.35;;;26.87;;
72406;SDS011;60396;47.550;18.828;2022-11-15T16:43:20;51.60;;;25.15;;
72406;SDS011;60396;47.550;18.828;2022-11-15T16:45:48;54.15;;;26.40;;
72406;SDS011;60396;47.550;18.828;2022-11-15T16:48:24;50.60;;;25.40;;
72406;SDS011;60396;47.550;18.828;2022-11-15T16:50:56;54.17;;;25.10;;
72406;SDS011;60396;47.550;18.828;2022-11-15T16:53:25;50.67;;;25.17;;
72406;SDS011;60396;47.550;18.828;2022-11-15T16:55:53;52.03;;;24.23;;
72406;SDS011;60396;47.550;18.828;2022-11-15T16:58:21;53.25;;;25.15;;
72406;SDS011;60396;47.550;18.828;2022-11-15T17:00:50;53.17;;;25.17;;
72406;SDS011;60396;47.550;18.828;2022-11-15T17:03:21;52.40;;;24.92;;
72406;SDS011;60396;47.550;18.828;2022-11-15T17:05:50;49.05;;;22.87;;
72406;SDS011;60396;47.550;18.828;2022-11-15T17:08:18;50.30;;;23.15;;
72406;SDS011;60396;47.550;18.828;2022-11-15T17:10:48;48.45;;;23.40;;
72406;SDS011;60396;47.550;18.828;2022-11-15T17:13:16;52.27;;;24.60;;
72406;SDS011;60396;47.550;18.828;2022-11-15T17:15:43;52.03;;;23.65;;
72406;SDS011;60396;47.550;18.828;2022-11-15T17:18:11;48.08;;;22.30;;
72406;SDS011;60396;47.550;18.828;2022-11-15T17:20:40;47.45;;;24.20;;
72406;SDS011;60396;47.550;18.828;2022-11-15T17:23:12;47.17;;;23.35;;
72406;SDS011;60396;47.550;18.828;2022-11-15T17:25:41;50.20;;;24.03;;
72406;SDS011;60396;47.550;18.828;2022-11-15T17:28:09;51.88;;;24.30;;
72406;SDS011;60396;47.550;18.828;2022-11-15T17:30:40;48.13;;;22.83;;
72406;SDS011;60396;47.550;18.828;2022-11-15T17:33:09;45.05;;;22.52;;
72406;SDS011;60396;47.550;18.828;2022-11-15T17:35:37;48.90;;;23.02;;
72406;SDS011;60396;47.550;18.828;2022-11-15T17:38:04;52.60;;;24.40;;
72406;SDS011;60396;47.550;18.828;2022-11-15T17:40:32;50.30;;;22.35;;
72406;SDS011;60396;47.550;18.828;2022-11-15T17:43:00;49.75;;;23.27;;
72406;SDS011;60396;47.550;18.828;2022-11-15T17:45:28;48.92;;;21.50;;
72406;SDS011;60396;47.550;18.828;2022-11-15T17:47:56;48.72;;;22.75;;
72406;SDS011;60396;47.550;18.828;2022-11-15T17:50:25;44.47;;;21.03;;
72406;SDS011;60396;47.550;18.828;2022-11-15T17:52:52;44.90;;;20.37;;
72406;SDS011;60396;47.550;18.828;2022-11-15T17:55:21;40.00;;;19.05;;
72406;SDS011;60396;47.550;18.828;2022-11-15T17:57:48;38.33;;;18.70;;
72406;SDS011;60396;47.550;18.828;2022-11-15T18:00:16;36.88;;;18.75;;
72406;SDS011;60396;47.550;18.828;2022-11-15T18:02:47;36.77;;;18.37;;
72406;SDS011;60396;47.550;18.828;2022-11-15T18:05:14;36.58;;;18.33;;
72406;SDS011;60396;47.550;18.828;2022-11-15T18:07:42;37.55;;;17.87;;
72406;SDS011;60396;47.550;18.828;2022-11-15T18:10:10;38.13;;;18.27;;
72406;SDS011;60396;47.550;18.828;2022-11-15T18:12:38;37.80;;;17.90;;
72406;SDS011;60396;47.550;18.828;2022-11-15T18:15:05;39.03;;;19.13;;
72406;SDS011;60396;47.550;18.828;2022-11-15T18:17:33;41.42;;;20.88;;
72406;SDS011;60396;47.550;18.828;2022-11-15T18:20:02;43.80;;;22.42;;
72406;SDS011;60396;47.550;18.828;2022-11-15T18:22:30;46.25;;;21.73;;
72406;SDS011;60396;47.550;18.828;2022-11-15T18:24:58;46.22;;;20.50;;
72406;SDS011;60396;47.550;18.828;2022-11-15T18:27:26;50.70;;;23.60;;
72406;SDS011;60396;47.550;18.828;2022-11-15T18:29:55;49.42;;;23.10;;
72406;SDS011;60396;47.550;18.828;2022-11-15T18:32:23;49.90;;;24.17;;
72406;SDS011;60396;47.550;18.828;2022-11-15T18:34:51;47.62;;;23.20;;
72406;SDS011;60396;47.550;18.828;2022-11-15T18:37:18;42.67;;;18.65;;
72406;SDS011;60396;47.550;18.828;2022-11-15T18:39:47;39.50;;;18.30;;
72406;SDS011;60396;47.550;18.828;2022-11-15T18:42:19;44.03;;;17.37;;
72406;SDS011;60396;47.550;18.828;2022-11-15T18:44:47;44.67;;;20.33;;
72406;SDS011;60396;47.550;18.828;2022-11-15T18:47:15;43.40;;;19.23;;
72406;SDS011;60396;47.550;18.828;2022-11-15T18:49:43;40.70;;;18.12;;
72406;SDS011;60396;47.550;18.828;2022-11-15T18:52:10;41.37;;;19.40;;
72406;SDS011;60396;47.550;18.828;2022-11-15T18:54:38;42.00;;;18.70;;
72406;SDS011;60396;47.550;18.828;2022-11-15T18:57:05;42.25;;;20.12;;
72406;SDS011;60396;47.550;18.828;2022-11-15T18:59:33;41.40;;;19.77;;
72406;SDS011;60396;47.550;18.828;2022-11-15T19:02:01;40.85;;;19.12;;
72406;SDS011;60396;47.550;18.828;2022-11-15T19:04:28;39.30;;;17.97;;
72406;SDS011;60396;47.550;18.828;2022-11-15T19:06:56;38.60;;;17.65;;